sensor_id;sensor_type;location;lat;lon;timestamp;pressure;altitude;pressure_sealevel;temperature;humidity
4972;BME280;2501;51.214;6.768;2023-03-19T00:00:43;100863.47;;;11.30;84.32
4972;BME280;2501;51.214;6.768;2023-03-19T00:03:14;100864.41;;;11.36;83.97
4972;BME280;2501;51.214;6.768;2023-03-19T00:05:49;100871.41;;;11.36;83.54
4972;BME280;2501;51.214;6.768;2023-03-19T00:08:18;100874.03;;;11.39;83.22
4972;BME280;2501;51.214;6.768;2023-03-19T00:10:47;100873.19;;;11.40;83.20
4972;BME280;2501;51.214;6.768;2023-03-19T00:13:16;100874.03;;;11.36;83.31
4972;BME280;2501;51.214;6.768;2023-03-19T00:15:45;100868.72;;;11.30;83.20
4972;BME280;2501;51.214;6.768;2023-03-19T00:18:16;100860.97;;;11.56;83.06
4972;BME280;2501;51.214;6.768;2023-03-19T00:20:45;100860.00;;;11.35;83.82
4972;BME280;2501;51.214;6.768;2023-03-19T00:23:13;100855.56;;;11.21;84.25
4972;BME280;2501;51.214;6.768;2023-03-19T00:25:42;100867.75;;;11.12;84.32
4972;BME280;2501;51.214;6.768;2023-03-19T00:28:10;100867.75;;;11.06;84.11
4972;BME280;2501;51.214;6.768;2023-03-19T00:30:39;100865.09;;;11.00;84.81
4972;BME280;2501;51.214;6.768;2023-03-19T00:33:09;100862.47;;;11.00;84.92
4972;BME280;2501;51.214;6.768;2023-03-19T00:35:40;100861.59;;;11.03;84.82
4972;BME280;2501;51.214;6.768;2023-03-19T00:38:09;100852.78;;;10.93;85.00
4972;BME280;2501;51.214;6.768;2023-03-19T00:40:38;100859.69;;;10.79;85.73
4972;BME280;2501;51.214;6.768;2023-03-19T00:43:07;100851.91;;;10.90;85.35
4972;BME280;2501;51.214;6.768;2023-03-19T00:45:35;100869.25;;;10.68;86.04
4972;BME280;2501;51.214;6.768;2023-03-19T00:48:04;100867.47;;;10.65;86.28
4972;BME280;2501;51.214;6.768;2023-03-19T00:50:33;100873.63;;;10.69;85.94
4972;BME280;2501;51.214;6.768;2023-03-19T00:53:04;100878.91;;;10.72;85.55
4972;BME280;2501;51.214;6.768;2023-03-19T00:55:32;100880.66;;;10.71;85.18
4972;BME280;2501;51.214;6.768;2023-03-19T00:58:01;100871.84;;;10.66;85.28
4972;BME280;2501;51.214;6.768;2023-03-19T01:00:31;100873.44;;;10.48;86.05
4972;BME280;2501;51.214;6.768;2023-03-19T01:03:00;100867.31;;;10.45;86.93
4972;BME280;2501;51.214;6.768;2023-03-19T01:05:30;100868.97;;;10.34;87.98
4972;BME280;2501;51.214;6.768;2023-03-19T01:07:58;100875.00;;;10.26;88.78
4972;BME280;2501;51.214;6.768;2023-03-19T01:10:32;100874.88;;;10.15;89.09
4972;BME280;2501;51.214;6.768;2023-03-19T01:13:00;100869.59;;;10.10;89.40
4972;BME280;2501;51.214;6.768;2023-03-19T01:15:29;100873.25;;;10.26;89.74
4972;BME280;2501;51.214;6.768;2023-03-19T01:17:57;100877.53;;;10.18;89.53
4972;BME280;2501;51.214;6.768;2023-03-19T01:20:26;100870.03;;;10.59;88.75
4972;BME280;2501;51.214;6.768;2023-03-19T01:22:54;100867.38;;;10.52;87.74
4972;BME280;2501;51.214;6.768;2023-03-19T01:25:22;100853.31;;;10.45;87.44
4972;BME280;2501;51.214;6.768;2023-03-19T01:27:53;100848.91;;;10.41;87.46
4972;BME280;2501;51.214;6.768;2023-03-19T01:30:22;100843.66;;;10.41;87.17
4972;BME280;2501;51.214;6.768;2023-03-19T01:32:50;100854.22;;;10.49;86.70
4972;BME280;2501;51.214;6.768;2023-03-19T01:35:19;100853.28;;;10.39;86.39
4972;BME280;2501;51.214;6.768;2023-03-19T01:37:48;100852.53;;;10.55;86.28
4972;BME280;2501;51.214;6.768;2023-03-19T01:40:16;100850.66;;;10.39;86.48
4972;BME280;2501;51.214;6.768;2023-03-19T01:42:56;100854.09;;;10.33;86.32
4972;BME280;2501;51.214;6.768;2023-03-19T01:45:33;100847.97;;;10.30;86.32
4972;BME280;2501;51.214;6.768;2023-03-19T01:48:02;100847.91;;;10.25;86.64
4972;BME280;2501;51.214;6.768;2023-03-19T01:50:37;100845.28;;;10.21;86.62
4972;BME280;2501;51.214;6.768;2023-03-19T01:53:08;100848.03;;;10.40;85.99
4972;BME280;2501;51.214;6.768;2023-03-19T01:55:39;100852.25;;;10.22;86.39
4972;BME280;2501;51.214;6.768;2023-03-19T01:58:10;100844.16;;;10.00;87.42
4972;BME280;2501;51.214;6.768;2023-03-19T02:00:39;100849.22;;;9.82;88.26
4972;BME280;2501;51.214;6.768;2023-03-19T02:03:08;100845.66;;;9.77;89.28
4972;BME280;2501;51.214;6.768;2023-03-19T02:05:37;100857.09;;;9.82;89.39
4972;BME280;2501;51.214;6.768;2023-03-19T02:08:10;100853.69;;;9.94;88.98
4972;BME280;2501;51.214;6.768;2023-03-19T02:10:40;100850.25;;;9.98;88.68
4972;BME280;2501;51.214;6.768;2023-03-19T02:13:12;100848.56;;;10.04;88.73
4972;BME280;2501;51.214;6.768;2023-03-19T02:15:41;100853.06;;;10.16;88.49
4972;BME280;2501;51.214;6.768;2023-03-19T02:18:09;100861.75;;;10.12;87.99
4972;BME280;2501;51.214;6.768;2023-03-19T02:20:43;100857.44;;;10.17;88.04
4972;BME280;2501;51.214;6.768;2023-03-19T02:23:24;100855.91;;;10.37;87.30
4972;BME280;2501;51.214;6.768;2023-03-19T02:26:03;100846.22;;;10.30;86.69
4972;BME280;2501;51.214;6.768;2023-03-19T02:28:36;100847.16;;;10.41;86.89
4972;BME280;2501;51.214;6.768;2023-03-19T02:31:06;100843.59;;;10.32;86.69
4972;BME280;2501;51.214;6.768;2023-03-19T02:33:34;100848.88;;;10.35;86.93
4972;BME280;2501;51.214;6.768;2023-03-19T02:36:05;100841.91;;;10.37;86.69
4972;BME280;2501;51.214;6.768;2023-03-19T02:38:38;100844.50;;;10.34;86.70
4972;BME280;2501;51.214;6.768;2023-03-19T02:41:10;100838.44;;;10.38;86.20
4972;BME280;2501;51.214;6.768;2023-03-19T02:43:39;100844.47;;;10.31;86.49
4972;BME280;2501;51.214;6.768;2023-03-19T02:46:10;100842.81;;;10.43;86.41
4972;BME280;2501;51.214;6.768;2023-03-19T02:48:38;100834.91;;;10.36;86.32
4972;BME280;2501;51.214;6.768;2023-03-19T02:51:08;100833.16;;;10.35;86.01
4972;BME280;2501;51.214;6.768;2023-03-19T02:53:37;100842.78;;;10.36;85.97
4972;BME280;2501;51.214;6.768;2023-03-19T02:56:07;100842.78;;;10.36;85.86
4972;BME280;2501;51.214;6.768;2023-03-19T02:58:38;100846.28;;;10.36;85.51
4972;BME280;2501;51.214;6.768;2023-03-19T03:01:06;100842.78;;;10.37;85.49
4972;BME280;2501;51.214;6.768;2023-03-19T03:03:35;100838.44;;;10.38;84.83
4972;BME280;2501;51.214;6.768;2023-03-19T03:06:03;100842.78;;;10.40;84.82
4972;BME280;2501;51.214;6.768;2023-03-19T03:08:32;100846.28;;;10.39;84.79
4972;BME280;2501;51.214;6.768;2023-03-19T03:11:01;100842.78;;;10.40;84.77
4972;BME280;2501;51.214;6.768;2023-03-19T03:13:29;100859.41;;;10.42;84.86
4972;BME280;2501;51.214;6.768;2023-03-19T03:16:00;100840.16;;;10.40;84.53
4972;BME280;2501;51.214;6.768;2023-03-19T03:18:29;100848.91;;;10.39;84.40
4972;BME280;2501;51.214;6.768;2023-03-19T03:20:57;100848.03;;;10.42;84.42
4972;BME280;2501;51.214;6.768;2023-03-19T03:23:25;100848.03;;;10.42;84.24
4972;BME280;2501;51.214;6.768;2023-03-19T03:25:54;100852.44;;;10.43;84.19
4972;BME280;2501;51.214;6.768;2023-03-19T03:28:23;100860.31;;;10.46;84.26
4972;BME280;2501;51.214;6.768;2023-03-19T03:31:00;100861.16;;;10.42;84.30
4972;BME280;2501;51.214;6.768;2023-03-19T03:33:28;100859.41;;;10.41;84.30
4972;BME280;2501;51.214;6.768;2023-03-19T03:35:57;100866.38;;;10.36;84.54
4972;BME280;2501;51.214;6.768;2023-03-19T03:38:25;100862.81;;;10.31;84.90
4972;BME280;2501;51.214;6.768;2023-03-19T03:40:54;100867.16;;;10.27;85.02
4972;BME280;2501;51.214;6.768;2023-03-19T03:43:22;100869.75;;;10.26;85.29
4972;BME280;2501;51.214;6.768;2023-03-19T03:45:50;100863.63;;;10.25;85.58
4972;BME280;2501;51.214;6.768;2023-03-19T03:48:22;100871.47;;;10.24;85.49
4972;BME280;2501;51.214;6.768;2023-03-19T03:50:50;100873.22;;;10.23;85.38
4972;BME280;2501;51.214;6.768;2023-03-19T03:53:18;100871.50;;;10.25;85.72
4972;BME280;2501;51.214;6.768;2023-03-19T03:55:47;100876.75;;;10.25;86.13
4972;BME280;2501;51.214;6.768;2023-03-19T03:58:16;100874.09;;;10.24;86.18
4972;BME280;2501;51.214;6.768;2023-03-19T04:00:45;100879.38;;;10.25;86.21
4972;BME280;2501;51.214;6.768;2023-03-19T04:03:13;100883.81;;;10.32;86.04
4972;BME280;2501;51.214;6.768;2023-03-19T04:05:45;100886.44;;;10.34;85.96
4972;BME280;2501;51.214;6.768;2023-03-19T04:08:13;100890.84;;;10.39;85.96
4972;BME280;2501;51.214;6.768;2023-03-19T04:10:42;100887.38;;;10.40;85.71
4972;BME280;2501;51.214;6.768;2023-03-19T04:13:11;100889.16;;;10.44;85.49
4972;BME280;2501;51.214;6.768;2023-03-19T04:15:41;100890.91;;;10.45;85.69
4972;BME280;2501;51.214;6.768;2023-03-19T04:18:09;100887.44;;;10.48;85.64
4972;BME280;2501;51.214;6.768;2023-03-19T04:20:37;100889.22;;;10.51;85.62
4972;BME280;2501;51.214;6.768;2023-03-19T04:23:09;100898.00;;;10.54;85.64
4972;BME280;2501;51.214;6.768;2023-03-19T04:25:38;100894.50;;;10.54;85.56
4972;BME280;2501;51.214;6.768;2023-03-19T04:28:06;100890.13;;;10.54;85.61
4972;BME280;2501;51.214;6.768;2023-03-19T04:30:35;100894.50;;;10.58;85.54
4972;BME280;2501;51.214;6.768;2023-03-19T04:33:04;100901.50;;;10.59;85.41
4972;BME280;2501;51.214;6.768;2023-03-19T04:35:33;100897.19;;;10.63;85.33
4972;BME280;2501;51.214;6.768;2023-03-19T04:38:01;100905.03;;;10.63;85.34
4972;BME280;2501;51.214;6.768;2023-03-19T04:40:33;100902.41;;;10.63;85.43
4972;BME280;2501;51.214;6.768;2023-03-19T04:43:01;100900.66;;;10.62;85.75
4972;BME280;2501;51.214;6.768;2023-03-19T04:45:29;100899.78;;;10.61;85.66
4972;BME280;2501;51.214;6.768;2023-03-19T04:47:58;100902.53;;;10.76;84.97
4972;BME280;2501;51.214;6.768;2023-03-19T04:50:27;100905.94;;;10.65;84.91
4972;BME280;2501;51.214;6.768;2023-03-19T04:52:55;100912.91;;;10.63;85.27
4972;BME280;2501;51.214;6.768;2023-03-19T04:55:24;100909.44;;;10.67;85.09
4972;BME280;2501;51.214;6.768;2023-03-19T04:57:55;100912.06;;;10.65;84.88
4972;BME280;2501;51.214;6.768;2023-03-19T05:00:23;100915.56;;;10.66;84.78
4972;BME280;2501;51.214;6.768;2023-03-19T05:02:52;100912.03;;;10.64;84.98
4972;BME280;2501;51.214;6.768;2023-03-19T05:05:21;100918.19;;;10.66;85.02
4972;BME280;2501;51.214;6.768;2023-03-19T05:07:49;100912.94;;;10.64;85.18
4972;BME280;2501;51.214;6.768;2023-03-19T05:10:18;100908.53;;;10.63;85.52
4972;BME280;2501;51.214;6.768;2023-03-19T05:12:46;100912.00;;;10.61;85.72
4972;BME280;2501;51.214;6.768;2023-03-19T05:15:17;100921.66;;;10.63;85.86
4972;BME280;2501;51.214;6.768;2023-03-19T05:17:46;100927.81;;;10.67;86.00
4972;BME280;2501;51.214;6.768;2023-03-19T05:20:15;100928.69;;;10.66;86.14
4972;BME280;2501;51.214;6.768;2023-03-19T05:22:44;100926.06;;;10.66;86.28
4972;BME280;2501;51.214;6.768;2023-03-19T05:25:13;100932.13;;;10.62;86.34
4972;BME280;2501;51.214;6.768;2023-03-19T05:27:42;100933.84;;;10.60;86.45
4972;BME280;2501;51.214;6.768;2023-03-19T05:30:11;100926.00;;;10.60;86.56
4972;BME280;2501;51.214;6.768;2023-03-19T05:32:44;100923.34;;;10.57;86.53
4972;BME280;2501;51.214;6.768;2023-03-19T05:35:13;100925.97;;;10.57;86.54
4972;BME280;2501;51.214;6.768;2023-03-19T05:37:41;100929.47;;;10.54;86.39
4972;BME280;2501;51.214;6.768;2023-03-19T05:40:11;100918.94;;;10.51;86.63
4972;BME280;2501;51.214;6.768;2023-03-19T05:42:40;100928.59;;;10.54;86.58
4972;BME280;2501;51.214;6.768;2023-03-19T05:45:10;100931.16;;;10.49;86.69
4972;BME280;2501;51.214;6.768;2023-03-19T05:47:38;100931.09;;;10.43;86.91
4972;BME280;2501;51.214;6.768;2023-03-19T05:50:10;100931.13;;;10.48;87.13
4972;BME280;2501;51.214;6.768;2023-03-19T05:52:39;100936.38;;;10.48;87.36
4972;BME280;2501;51.214;6.768;2023-03-19T05:55:08;100940.84;;;10.55;87.17
4972;BME280;2501;51.214;6.768;2023-03-19T05:57:36;100943.47;;;10.59;87.40
4972;BME280;2501;51.214;6.768;2023-03-19T06:00:07;100946.97;;;10.55;87.46
4972;BME280;2501;51.214;6.768;2023-03-19T06:02:36;100951.34;;;10.59;87.57
4972;BME280;2501;51.214;6.768;2023-03-19T06:05:05;100951.34;;;10.61;87.46
4972;BME280;2501;51.214;6.768;2023-03-19T06:07:36;100946.09;;;10.58;87.95
4972;BME280;2501;51.214;6.768;2023-03-19T06:10:07;100955.72;;;10.59;87.75
4972;BME280;2501;51.214;6.768;2023-03-19T06:12:36;100953.97;;;10.59;87.84
4972;BME280;2501;51.214;6.768;2023-03-19T06:15:05;100954.81;;;10.55;87.84
4972;BME280;2501;51.214;6.768;2023-03-19T06:17:33;100945.72;;;11.26;86.44
4972;BME280;2501;51.214;6.768;2023-03-19T06:20:02;100961.28;;;10.97;85.08
4972;BME280;2501;51.214;6.768;2023-03-19T06:22:31;100961.09;;;10.74;86.12
4972;BME280;2501;51.214;6.768;2023-03-19T06:25:02;100969.81;;;10.68;87.02
4972;BME280;2501;51.214;6.768;2023-03-19T06:27:31;100966.28;;;10.66;87.17
4972;BME280;2501;51.214;6.768;2023-03-19T06:29:59;100976.75;;;10.63;87.53
4972;BME280;2501;51.214;6.768;2023-03-19T06:32:27;100978.53;;;10.66;87.70
4972;BME280;2501;51.214;6.768;2023-03-19T06:34:56;100982.88;;;10.65;87.89
4972;BME280;2501;51.214;6.768;2023-03-19T06:37:25;100975.81;;;10.60;87.92
4972;BME280;2501;51.214;6.768;2023-03-19T06:39:53;100982.84;;;10.61;88.05
4972;BME280;2501;51.214;6.768;2023-03-19T06:42:25;100988.91;;;10.55;88.06
4972;BME280;2501;51.214;6.768;2023-03-19T06:44:53;100981.91;;;10.54;88.12
4972;BME280;2501;51.214;6.768;2023-03-19T06:47:21;100986.31;;;10.60;88.53
4972;BME280;2501;51.214;6.768;2023-03-19T06:49:50;100988.91;;;10.57;88.83
4972;BME280;2501;51.214;6.768;2023-03-19T06:52:22;100982.75;;;10.52;89.14
4972;BME280;2501;51.214;6.768;2023-03-19T06:54:50;100988.09;;;10.61;89.51
4972;BME280;2501;51.214;6.768;2023-03-19T06:57:19;100988.91;;;10.55;89.75
4972;BME280;2501;51.214;6.768;2023-03-19T06:59:50;100985.41;;;10.58;89.94
4972;BME280;2501;51.214;6.768;2023-03-19T07:02:18;100986.38;;;10.66;89.90
4972;BME280;2501;51.214;6.768;2023-03-19T07:04:47;100980.34;;;10.73;89.91
4972;BME280;2501;51.214;6.768;2023-03-19T07:07:16;100993.59;;;10.91;89.12
4972;BME280;2501;51.214;6.768;2023-03-19T07:09:45;100991.00;;;10.96;88.91
4972;BME280;2501;51.214;6.768;2023-03-19T07:12:13;100995.44;;;11.00;88.45
4972;BME280;2501;51.214;6.768;2023-03-19T07:14:42;100993.69;;;11.00;88.23
4972;BME280;2501;51.214;6.768;2023-03-19T07:17:13;100991.94;;;11.01;87.63
4972;BME280;2501;51.214;6.768;2023-03-19T07:19:41;100998.94;;;11.02;88.06
4972;BME280;2501;51.214;6.768;2023-03-19T07:22:10;101004.22;;;11.05;87.83
4972;BME280;2501;51.214;6.768;2023-03-19T07:24:39;101009.50;;;11.11;87.67
4972;BME280;2501;51.214;6.768;2023-03-19T07:27:07;101009.59;;;11.22;87.45
4972;BME280;2501;51.214;6.768;2023-03-19T07:29:36;101009.50;;;11.08;87.40
4972;BME280;2501;51.214;6.768;2023-03-19T07:32:05;101011.34;;;11.26;86.71
4972;BME280;2501;51.214;6.768;2023-03-19T07:34:37;101026.22;;;11.21;86.54
4972;BME280;2501;51.214;6.768;2023-03-19T07:37:05;101021.84;;;11.20;86.72
4972;BME280;2501;51.214;6.768;2023-03-19T07:39:34;101032.28;;;11.13;86.12
4972;BME280;2501;51.214;6.768;2023-03-19T07:42:03;101030.50;;;11.12;85.84
4972;BME280;2501;51.214;6.768;2023-03-19T07:44:32;101040.13;;;11.10;85.92
4972;BME280;2501;51.214;6.768;2023-03-19T07:47:00;101031.41;;;11.13;85.60
4972;BME280;2501;51.214;6.768;2023-03-19T07:49:29;101029.72;;;11.21;85.43
4972;BME280;2501;51.214;6.768;2023-03-19T07:52:00;101034.13;;;11.24;85.06
4972;BME280;2501;51.214;6.768;2023-03-19T07:54:28;101035.78;;;11.15;85.62
4972;BME280;2501;51.214;6.768;2023-03-19T07:56:56;101038.44;;;11.17;85.69
4972;BME280;2501;51.214;6.768;2023-03-19T07:59:25;101033.16;;;11.12;86.15
4972;BME280;2501;51.214;6.768;2023-03-19T08:01:53;101041.13;;;11.22;86.01
4972;BME280;2501;51.214;6.768;2023-03-19T08:04:22;101042.03;;;11.25;86.08
4972;BME280;2501;51.214;6.768;2023-03-19T08:06:50;101039.41;;;11.31;85.96
4972;BME280;2501;51.214;6.768;2023-03-19T08:09:21;101043.88;;;11.44;85.49
4972;BME280;2501;51.214;6.768;2023-03-19T08:11:49;101047.38;;;11.40;85.19
4972;BME280;2501;51.214;6.768;2023-03-19T08:14:18;101036.94;;;11.51;85.06
4972;BME280;2501;51.214;6.768;2023-03-19T08:16:47;101044.81;;;11.52;84.84
4972;BME280;2501;51.214;6.768;2023-03-19T08:19:15;101038.84;;;11.75;84.09
4972;BME280;2501;51.214;6.768;2023-03-19T08:21:44;101044.84;;;11.60;84.02
4972;BME280;2501;51.214;6.768;2023-03-19T08:24:12;101034.41;;;11.69;83.40
4972;BME280;2501;51.214;6.768;2023-03-19T08:26:46;101039.63;;;11.63;83.62
4972;BME280;2501;51.214;6.768;2023-03-19T08:29:15;101048.38;;;11.61;83.79
4972;BME280;2501;51.214;6.768;2023-03-19T08:31:43;101045.91;;;11.82;83.13
4972;BME280;2501;51.214;6.768;2023-03-19T08:34:12;101044.22;;;11.90;82.71
4972;BME280;2501;51.214;6.768;2023-03-19T08:36:40;101039.94;;;12.10;81.77
4972;BME280;2501;51.214;6.768;2023-03-19T08:39:09;101044.22;;;11.92;81.95
4972;BME280;2501;51.214;6.768;2023-03-19T08:41:37;101043.38;;;11.94;82.52
4972;BME280;2501;51.214;6.768;2023-03-19T08:44:08;101044.28;;;12.04;82.06
4972;BME280;2501;51.214;6.768;2023-03-19T08:46:37;101047.00;;;12.25;81.71
4972;BME280;2501;51.214;6.768;2023-03-19T08:49:07;101050.50;;;12.30;81.21
4972;BME280;2501;51.214;6.768;2023-03-19T08:51:35;101060.97;;;12.16;81.55
4972;BME280;2501;51.214;6.768;2023-03-19T08:54:05;101055.72;;;12.15;81.60
4972;BME280;2501;51.214;6.768;2023-03-19T08:56:34;101054.81;;;12.08;81.87
4972;BME280;2501;51.214;6.768;2023-03-19T08:59:02;101056.56;;;12.08;81.89
4972;BME280;2501;51.214;6.768;2023-03-19T09:01:33;101052.25;;;12.24;82.30
4972;BME280;2501;51.214;6.768;2023-03-19T09:04:02;101053.09;;;12.19;81.73
4972;BME280;2501;51.214;6.768;2023-03-19T09:06:30;101052.31;;;12.40;81.48
4972;BME280;2501;51.214;6.768;2023-03-19T09:08:59;101057.63;;;12.60;80.38
4972;BME280;2501;51.214;6.768;2023-03-19T09:11:27;101058.50;;;12.58;80.46
4972;BME280;2501;51.214;6.768;2023-03-19T09:13:56;101050.59;;;12.65;80.02
4972;BME280;2501;51.214;6.768;2023-03-19T09:16:24;101060.25;;;12.68;79.70
4972;BME280;2501;51.214;6.768;2023-03-19T09:18:55;101060.22;;;12.49;80.29
4972;BME280;2501;51.214;6.768;2023-03-19T09:21:24;101058.59;;;13.11;79.26
4972;BME280;2501;51.214;6.768;2023-03-19T09:23:53;101057.72;;;13.18;77.95
4972;BME280;2501;51.214;6.768;2023-03-19T09:26:21;101061.22;;;13.38;76.58
4972;BME280;2501;51.214;6.768;2023-03-19T09:28:50;101064.72;;;13.54;76.91
4972;BME280;2501;51.214;6.768;2023-03-19T09:31:18;101066.47;;;13.12;77.88
4972;BME280;2501;51.214;6.768;2023-03-19T09:33:47;101068.28;;;13.32;77.18
4972;BME280;2501;51.214;6.768;2023-03-19T09:36:19;101078.75;;;13.85;75.06
4972;BME280;2501;51.214;6.768;2023-03-19T09:38:48;101072.56;;;14.01;nan
4972;BME280;2501;51.214;6.768;2023-03-19T09:41:22;101081.38;;;13.76;74.76
4972;BME280;2501;51.214;6.768;2023-03-19T09:43:59;101079.63;;;13.75;75.06
4972;BME280;2501;51.214;6.768;2023-03-19T09:46:36;101083.16;;;13.78;74.56
4972;BME280;2501;51.214;6.768;2023-03-19T09:49:15;101080.53;;;13.37;76.81
4972;BME280;2501;51.214;6.768;2023-03-19T09:51:49;101077.88;;;13.71;75.42
4972;BME280;2501;51.214;6.768;2023-03-19T09:54:29;101075.94;;;14.35;72.11
4972;BME280;2501;51.214;6.768;2023-03-19T09:56:58;101081.44;;;13.45;73.77
4972;BME280;2501;51.214;6.768;2023-03-19T09:59:28;101070.00;;;13.66;75.56
4972;BME280;2501;51.214;6.768;2023-03-19T10:02:03;101066.41;;;13.88;73.35
4972;BME280;2501;51.214;6.768;2023-03-19T10:04:42;101070.00;;;13.43;74.97
4972;BME280;2501;51.214;6.768;2023-03-19T10:07:24;101077.06;;;13.29;75.79
4972;BME280;2501;51.214;6.768;2023-03-19T10:10:13;101074.41;;;13.66;75.62
4972;BME280;2501;51.214;6.768;2023-03-19T10:12:55;101073.47;;;13.80;74.48
4972;BME280;2501;51.214;6.768;2023-03-19T10:15:28;101083.84;;;14.35;72.73
4972;BME280;2501;51.214;6.768;2023-03-19T10:18:00;101080.41;;;14.12;72.96
4972;BME280;2501;51.214;6.768;2023-03-19T10:20:42;101077.88;;;13.81;73.82
4972;BME280;2501;51.214;6.768;2023-03-19T10:23:25;101078.78;;;13.62;73.97
4972;BME280;2501;51.214;6.768;2023-03-19T10:25:58;101084.06;;;13.56;74.34
4972;BME280;2501;51.214;6.768;2023-03-19T10:28:28;101084.75;;;14.22;73.34
4972;BME280;2501;51.214;6.768;2023-03-19T10:31:08;101081.38;;;13.79;73.51
4972;BME280;2501;51.214;6.768;2023-03-19T10:33:43;101076.06;;;14.00;73.52
4972;BME280;2501;51.214;6.768;2023-03-19T10:36:12;101077.84;;;13.90;74.15
4972;BME280;2501;51.214;6.768;2023-03-19T10:38:43;101094.56;;;13.68;74.46
4972;BME280;2501;51.214;6.768;2023-03-19T10:41:21;101087.56;;;13.63;74.76
4972;BME280;2501;51.214;6.768;2023-03-19T10:43:53;101089.31;;;13.77;73.92
4972;BME280;2501;51.214;6.768;2023-03-19T10:46:23;101084.91;;;13.78;73.98
4972;BME280;2501;51.214;6.768;2023-03-19T10:48:52;101094.53;;;13.89;73.96
4972;BME280;2501;51.214;6.768;2023-03-19T10:51:23;101099.84;;;13.80;72.84
4972;BME280;2501;51.214;6.768;2023-03-19T10:53:54;101095.97;;;14.76;71.57
4972;BME280;2501;51.214;6.768;2023-03-19T10:56:24;101096.06;;;14.63;70.02
4972;BME280;2501;51.214;6.768;2023-03-19T10:58:59;101090.91;;;14.30;72.57
4972;BME280;2501;51.214;6.768;2023-03-19T11:01:31;101104.25;;;13.74;73.57
4972;BME280;2501;51.214;6.768;2023-03-19T11:04:01;101113.03;;;13.74;75.68
4972;BME280;2501;51.214;6.768;2023-03-19T11:06:34;101104.69;;;14.90;71.35
4972;BME280;2501;51.214;6.768;2023-03-19T11:09:13;101104.84;;;14.70;72.19
4972;BME280;2501;51.214;6.768;2023-03-19T11:11:45;101104.16;;;14.06;73.28
4972;BME280;2501;51.214;6.768;2023-03-19T11:14:15;101102.16;;;14.75;71.76
4972;BME280;2501;51.214;6.768;2023-03-19T11:16:49;101103.19;;;14.46;71.80
4972;BME280;2501;51.214;6.768;2023-03-19T11:19:20;101108.38;;;14.66;72.04
4972;BME280;2501;51.214;6.768;2023-03-19T11:22:13;101106.78;;;14.12;73.78
4972;BME280;2501;51.214;6.768;2023-03-19T11:24:52;101109.38;;;14.36;73.31
4972;BME280;2501;51.214;6.768;2023-03-19T11:27:29;101113.00;;;14.00;72.19
4972;BME280;2501;51.214;6.768;2023-03-19T11:29:59;101105.13;;;13.54;75.54
4972;BME280;2501;51.214;6.768;2023-03-19T11:35:29;101109.53;;;13.27;77.63
4972;BME280;2501;51.214;6.768;2023-03-19T11:38:00;101111.22;;;13.03;78.22
4972;BME280;2501;51.214;6.768;2023-03-19T11:40:40;101110.41;;;13.19;79.28
4972;BME280;2501;51.214;6.768;2023-03-19T11:43:26;101114.81;;;13.30;79.02
4972;BME280;2501;51.214;6.768;2023-03-19T11:46:07;101108.66;;;13.58;78.14
4972;BME280;2501;51.214;6.768;2023-03-19T11:48:50;101111.19;;;14.05;76.18
4972;BME280;2501;51.214;6.768;2023-03-19T11:51:30;101112.19;;;13.30;78.81
4972;BME280;2501;51.214;6.768;2023-03-19T11:54:05;101113.81;;;12.83;81.68
4972;BME280;2501;51.214;6.768;2023-03-19T11:56:42;101117.44;;;13.48;82.52
4972;BME280;2501;51.214;6.768;2023-03-19T11:59:28;101120.94;;;13.82;81.23
4972;BME280;2501;51.214;6.768;2023-03-19T12:02:16;101115.69;;;13.38;80.22
4972;BME280;2501;51.214;6.768;2023-03-19T12:04:59;101130.56;;;13.14;80.50
4972;BME280;2501;51.214;6.768;2023-03-19T12:07:32;101129.66;;;13.06;81.69
4972;BME280;2501;51.214;6.768;2023-03-19T12:10:19;101119.94;;;12.72;81.84
4972;BME280;2501;51.214;6.768;2023-03-19T12:13:01;101126.09;;;12.83;80.57
4972;BME280;2501;51.214;6.768;2023-03-19T12:15:38;101120.94;;;13.15;78.93
4972;BME280;2501;51.214;6.768;2023-03-19T12:18:17;101119.19;;;13.34;77.06
4972;BME280;2501;51.214;6.768;2023-03-19T12:20:57;101113.06;;;13.47;74.58
4972;BME280;2501;51.214;6.768;2023-03-19T12:23:43;101116.50;;;13.08;76.96
4972;BME280;2501;51.214;6.768;2023-03-19T12:26:18;101107.78;;;13.35;76.10
4972;BME280;2501;51.214;6.768;2023-03-19T12:28:58;101113.88;;;13.90;76.95
4972;BME280;2501;51.214;6.768;2023-03-19T12:31:40;101106.69;;;14.47;74.99
4972;BME280;2501;51.214;6.768;2023-03-19T12:34:21;101111.94;;;14.56;73.46
4972;BME280;2501;51.214;6.768;2023-03-19T12:36:54;101110.31;;;14.18;74.89
4972;BME280;2501;51.214;6.768;2023-03-19T12:39:31;101115.59;;;14.03;76.62
4972;BME280;2501;51.214;6.768;2023-03-19T12:42:03;101114.75;;;13.95;78.09
4972;BME280;2501;51.214;6.768;2023-03-19T12:44:38;101113.91;;;13.75;77.19
4972;BME280;2501;51.214;6.768;2023-03-19T12:47:12;101113.88;;;13.88;77.39
4972;BME280;2501;51.214;6.768;2023-03-19T12:49:47;101120.03;;;13.89;78.62
4972;BME280;2501;51.214;6.768;2023-03-19T12:52:20;101112.03;;;14.27;77.13
4972;BME280;2501;51.214;6.768;2023-03-19T12:54:55;101115.69;;;13.64;78.43
4972;BME280;2501;51.214;6.768;2023-03-19T12:57:31;101113.78;;;14.25;78.89
4972;BME280;2501;51.214;6.768;2023-03-19T13:00:08;101114.81;;;13.60;79.28
4972;BME280;2501;51.214;6.768;2023-03-19T13:02:42;101115.69;;;13.45;80.11
4972;BME280;2501;51.214;6.768;2023-03-19T13:05:18;101104.19;;;13.95;79.55
4972;BME280;2501;51.214;6.768;2023-03-19T13:07:58;101106.91;;;13.45;79.35
4972;BME280;2501;51.214;6.768;2023-03-19T13:10:30;101108.66;;;13.59;78.17
4972;BME280;2501;51.214;6.768;2023-03-19T13:13:01;101110.41;;;13.79;79.52
4972;BME280;2501;51.214;6.768;2023-03-19T13:15:37;101116.56;;;13.55;79.62
4972;BME280;2501;51.214;6.768;2023-03-19T13:18:19;101115.59;;;14.17;79.02
4972;BME280;2501;51.214;6.768;2023-03-19T13:21:08;101106.84;;;13.93;78.44
4972;BME280;2501;51.214;6.768;2023-03-19T13:23:42;101111.28;;;13.84;78.96
4972;BME280;2501;51.214;6.768;2023-03-19T13:26:12;101108.50;;;14.34;77.84
4972;BME280;2501;51.214;6.768;2023-03-19T13:28:54;101113.00;;;13.96;76.47
4972;BME280;2501;51.214;6.768;2023-03-19T13:31:32;101105.13;;;13.51;76.48
4972;BME280;2501;51.214;6.768;2023-03-19T13:34:03;101107.75;;;13.83;76.92